sensor_id;sensor_type;location;lat;lon;timestamp;pressure;altitude;pressure_sealevel;temperature;humidity
48041;BME280;33815;48.386;11.738;2023-05-21T00:01:31;96179.88;;;13.11;100.00
48041;BME280;33815;48.386;11.738;2023-05-21T00:03:56;96156.41;;;13.03;100.00
48041;BME280;33815;48.386;11.738;2023-05-21T00:06:23;96174.66;;;13.11;100.00
48041;BME280;33815;48.386;11.738;2023-05-21T00:08:49;96174.22;;;13.08;100.00
48041;BME280;33815;48.386;11.738;2023-05-21T00:11:14;96174.56;;;13.05;100.00
48041;BME280;33815;48.386;11.738;2023-05-21T00:13:39;96170.69;;;13.00;100.00
48041;BME280;33815;48.386;11.738;2023-05-21T00:16:05;96166.44;;;12.99;100.00
48041;BME280;33815;48.386;11.738;2023-05-21T00:18:30;96159.44;;;12.92;100.00
48041;BME280;33815;48.386;11.738;2023-05-21T00:20:56;96166.09;;;12.79;100.00
48041;BME280;33815;48.386;11.738;2023-05-21T00:23:21;96154.84;;;12.71;100.00
48041;BME280;33815;48.386;11.738;2023-05-21T00:25:47;96162.25;;;12.67;100.00
48041;BME280;33815;48.386;11.738;2023-05-21T00:28:12;96166.81;;;12.65;100.00
48041;BME280;33815;48.386;11.738;2023-05-21T00:30:37;96165.25;;;12.56;100.00
48041;BME280;33815;48.386;11.738;2023-05-21T00:33:03;96162.69;;;12.47;100.00
48041;BME280;33815;48.386;11.738;2023-05-21T00:35:29;96150.94;;;12.43;100.00
48041;BME280;33815;48.386;11.738;2023-05-21T00:37:54;96145.06;;;12.41;100.00
48041;BME280;33815;48.386;11.738;2023-05-21T00:40:20;96160.47;;;12.36;100.00
48041;BME280;33815;48.386;11.738;2023-05-21T00:42:45;96150.50;;;12.31;100.00
48041;BME280;33815;48.386;11.738;2023-05-21T00:45:12;96156.84;;;12.37;100.00
48041;BME280;33815;48.386;11.738;2023-05-21T00:47:38;96145.91;;;12.42;100.00
48041;BME280;33815;48.386;11.738;2023-05-21T00:50:07;96134.69;;;12.33;100.00
48041;BME280;33815;48.386;11.738;2023-05-21T00:52:32;96143.28;;;12.42;100.00
48041;BME280;33815;48.386;11.738;2023-05-21T00:55:05;96146.88;;;12.41;100.00
48041;BME280;33815;48.386;11.738;2023-05-21T00:57:31;96131.25;;;12.32;100.00
48041;BME280;33815;48.386;11.738;2023-05-21T00:59:59;96140.84;;;12.40;100.00
48041;BME280;33815;48.386;11.738;2023-05-21T01:02:25;96130.56;;;12.39;100.00
48041;BME280;33815;48.386;11.738;2023-05-21T01:04:53;96142.97;;;12.37;100.00
48041;BME280;33815;48.386;11.738;2023-05-21T01:07:19;96131.09;;;12.26;100.00
48041;BME280;33815;48.386;11.738;2023-05-21T01:09:44;96131.94;;;12.26;100.00
48041;BME280;33815;48.386;11.738;2023-05-21T01:12:10;96134.72;;;12.25;100.00
48041;BME280;33815;48.386;11.738;2023-05-21T01:14:36;96153.47;;;12.28;100.00
48041;BME280;33815;48.386;11.738;2023-05-21T01:17:04;96132.78;;;12.19;100.00
48041;BME280;33815;48.386;11.738;2023-05-21T01:19:30;96141.50;;;12.11;100.00
48041;BME280;33815;48.386;11.738;2023-05-21T01:22:00;96144.28;;;12.09;100.00
48041;BME280;33815;48.386;11.738;2023-05-21T01:24:28;96134.66;;;12.02;100.00
48041;BME280;33815;48.386;11.738;2023-05-21T01:26:53;96130.91;;;12.04;100.00
48041;BME280;33815;48.386;11.738;2023-05-21T01:29:19;96140.41;;;11.97;100.00
48041;BME280;33815;48.386;11.738;2023-05-21T01:32:04;96130.47;;;11.84;100.00
48041;BME280;33815;48.386;11.738;2023-05-21T01:34:47;96150.00;;;11.96;100.00
48041;BME280;33815;48.386;11.738;2023-05-21T01:37:30;96146.59;;;11.88;100.00
48041;BME280;33815;48.386;11.738;2023-05-21T01:40:04;96142.88;;;11.82;100.00
48041;BME280;33815;48.386;11.738;2023-05-21T01:42:32;96132.78;;;11.71;100.00
48041;BME280;33815;48.386;11.738;2023-05-21T01:45:00;96138.00;;;11.79;100.00
48041;BME280;33815;48.386;11.738;2023-05-21T01:47:30;96126.13;;;11.60;100.00
48041;BME280;33815;48.386;11.738;2023-05-21T01:49:56;96129.56;;;11.60;100.00
48041;BME280;33815;48.386;11.738;2023-05-21T01:52:21;96134.13;;;11.58;100.00
48041;BME280;33815;48.386;11.738;2023-05-21T01:54:46;96129.41;;;11.54;100.00
48041;BME280;33815;48.386;11.738;2023-05-21T01:57:14;96126.28;;;11.58;100.00
48041;BME280;33815;48.386;11.738;2023-05-21T01:59:41;96116.88;;;11.49;100.00
48041;BME280;33815;48.386;11.738;2023-05-21T02:02:06;96116.72;;;11.42;100.00
48041;BME280;33815;48.386;11.738;2023-05-21T02:04:31;96129.94;;;11.49;100.00
48041;BME280;33815;48.386;11.738;2023-05-21T02:06:56;96116.72;;;11.42;100.00
48041;BME280;33815;48.386;11.738;2023-05-21T02:09:22;96122.28;;;11.39;100.00
48041;BME280;33815;48.386;11.738;2023-05-21T02:11:47;96121.06;;;11.58;100.00
48041;BME280;33815;48.386;11.738;2023-05-21T02:14:12;96114.56;;;11.54;100.00
48041;BME280;33815;48.386;11.738;2023-05-21T02:16:38;96128.38;;;11.71;100.00
48041;BME280;33815;48.386;11.738;2023-05-21T02:19:04;96116.19;;;11.55;100.00
48041;BME280;33815;48.386;11.738;2023-05-21T02:21:30;96134.28;;;11.65;100.00
48041;BME280;33815;48.386;11.738;2023-05-21T02:23:55;96131.84;;;11.63;100.00
48041;BME280;33815;48.386;11.738;2023-05-21T02:26:21;96134.16;;;11.50;100.00
48041;BME280;33815;48.386;11.738;2023-05-21T02:28:46;96124.06;;;11.39;100.00
48041;BME280;33815;48.386;11.738;2023-05-21T02:31:12;96137.59;;;11.42;100.00
48041;BME280;33815;48.386;11.738;2023-05-21T02:33:39;96133.00;;;11.44;100.00
48041;BME280;33815;48.386;11.738;2023-05-21T02:36:05;96141.03;;;11.35;100.00
48041;BME280;33815;48.386;11.738;2023-05-21T02:38:30;96137.44;;;11.36;100.00
48041;BME280;33815;48.386;11.738;2023-05-21T02:40:56;96132.41;;;11.26;100.00
48041;BME280;33815;48.386;11.738;2023-05-21T02:43:21;96135.50;;;11.21;100.00
48041;BME280;33815;48.386;11.738;2023-05-21T02:45:47;96128.03;;;11.18;100.00
48041;BME280;33815;48.386;11.738;2023-05-21T02:48:12;96133.41;;;11.17;100.00
48041;BME280;33815;48.386;11.738;2023-05-21T02:50:37;96130.13;;;11.06;100.00
48041;BME280;33815;48.386;11.738;2023-05-21T02:53:02;96115.16;;;11.00;100.00
48041;BME280;33815;48.386;11.738;2023-05-21T02:55:28;96110.75;;;10.92;100.00
48041;BME280;33815;48.386;11.738;2023-05-21T02:57:53;96126.72;;;10.89;100.00
48041;BME280;33815;48.386;11.738;2023-05-21T03:00:18;96124.63;;;10.85;100.00
48041;BME280;33815;48.386;11.738;2023-05-21T03:02:44;96114.66;;;10.80;100.00
48041;BME280;33815;48.386;11.738;2023-05-21T03:05:09;96117.75;;;10.75;100.00
48041;BME280;33815;48.386;11.738;2023-05-21T03:07:34;96109.94;;;10.75;100.00
48041;BME280;33815;48.386;11.738;2023-05-21T03:10:00;96109.13;;;10.75;100.00
48041;BME280;33815;48.386;11.738;2023-05-21T03:12:25;96111.75;;;10.67;100.00
48041;BME280;33815;48.386;11.738;2023-05-21T03:14:51;96120.06;;;10.70;100.00
48041;BME280;33815;48.386;11.738;2023-05-21T03:17:16;96115.16;;;10.75;100.00
48041;BME280;33815;48.386;11.738;2023-05-21T03:19:43;96112.25;;;10.70;100.00
48041;BME280;33815;48.386;11.738;2023-05-21T03:22:09;96114.34;;;10.67;100.00
48041;BME280;33815;48.386;11.738;2023-05-21T03:24:36;96115.31;;;10.66;100.00
48041;BME280;33815;48.386;11.738;2023-05-21T03:27:02;96112.06;;;10.72;100.00
48041;BME280;33815;48.386;11.738;2023-05-21T03:29:27;96100.81;;;10.63;100.00
48041;BME280;33815;48.386;11.738;2023-05-21T03:31:53;96113.69;;;10.73;100.00
48041;BME280;33815;48.386;11.738;2023-05-21T03:34:18;96100.81;;;10.71;100.00
48041;BME280;33815;48.386;11.738;2023-05-21T03:36:45;96111.59;;;10.76;100.00
48041;BME280;33815;48.386;11.738;2023-05-21T03:39:10;96115.50;;;10.72;100.00
48041;BME280;33815;48.386;11.738;2023-05-21T03:41:35;96108.16;;;10.68;100.00
48041;BME280;33815;48.386;11.738;2023-05-21T03:44:01;96102.94;;;10.68;100.00
48041;BME280;33815;48.386;11.738;2023-05-21T03:46:26;96106.69;;;10.57;100.00
48041;BME280;33815;48.386;11.738;2023-05-21T03:48:52;96105.38;;;10.53;100.00
48041;BME280;33815;48.386;11.738;2023-05-21T03:51:17;96114.16;;;10.52;100.00
48041;BME280;33815;48.386;11.738;2023-05-21T03:53:44;96113.53;;;10.50;100.00
48041;BME280;33815;48.386;11.738;2023-05-21T03:56:09;96115.13;;;10.59;100.00
48041;BME280;33815;48.386;11.738;2023-05-21T03:58:34;96111.56;;;10.60;100.00
48041;BME280;33815;48.386;11.738;2023-05-21T04:01:00;96108.16;;;10.59;100.00
48041;BME280;33815;48.386;11.738;2023-05-21T04:03:26;96099.53;;;10.51;100.00
48041;BME280;33815;48.386;11.738;2023-05-21T04:05:52;96118.72;;;10.74;100.00
48041;BME280;33815;48.386;11.738;2023-05-21T04:08:17;96107.84;;;10.71;100.00
48041;BME280;33815;48.386;11.738;2023-05-21T04:10:42;96124.63;;;10.85;100.00
48041;BME280;33815;48.386;11.738;2023-05-21T04:13:08;96126.22;;;11.02;100.00
48041;BME280;33815;48.386;11.738;2023-05-21T04:15:33;96121.69;;;11.04;100.00
48041;BME280;33815;48.386;11.738;2023-05-21T04:17:59;96118.91;;;11.22;100.00
48041;BME280;33815;48.386;11.738;2023-05-21T04:20:24;96131.41;;;11.35;100.00
48041;BME280;33815;48.386;11.738;2023-05-21T04:22:50;96111.88;;;11.23;100.00
48041;BME280;33815;48.386;11.738;2023-05-21T04:25:15;96125.84;;;11.55;100.00
48041;BME280;33815;48.386;11.738;2023-05-21T04:27:41;96135.63;;;11.44;100.00
48041;BME280;33815;48.386;11.738;2023-05-21T04:30:08;96116.88;;;11.49;100.00
48041;BME280;33815;48.386;11.738;2023-05-21T04:32:33;96128.59;;;11.61;100.00
48041;BME280;33815;48.386;11.738;2023-05-21T04:34:59;96116.03;;;11.48;100.00
48041;BME280;33815;48.386;11.738;2023-05-21T04:37:28;96140.00;;;11.69;100.00
48041;BME280;33815;48.386;11.738;2023-05-21T04:39:54;96124.63;;;11.65;100.00
48041;BME280;33815;48.386;11.738;2023-05-21T04:42:19;96138.13;;;11.86;100.00
48041;BME280;33815;48.386;11.738;2023-05-21T04:44:48;96143.34;;;11.94;100.00
48041;BME280;33815;48.386;11.738;2023-05-21T04:47:14;96127.00;;;11.92;100.00
48041;BME280;33815;48.386;11.738;2023-05-21T04:49:39;96134.84;;;12.00;100.00
48041;BME280;33815;48.386;11.738;2023-05-21T04:52:05;96142.28;;;12.11;100.00
48041;BME280;33815;48.386;11.738;2023-05-21T04:54:30;96133.94;;;12.16;100.00
48041;BME280;33815;48.386;11.738;2023-05-21T04:56:55;96119.44;;;12.13;100.00
48041;BME280;33815;48.386;11.738;2023-05-21T04:59:22;96133.50;;;12.36;100.00
48041;BME280;33815;48.386;11.738;2023-05-21T05:01:47;96140.63;;;12.50;100.00
48041;BME280;33815;48.386;11.738;2023-05-21T05:04:12;96142.59;;;12.48;100.00
48041;BME280;33815;48.386;11.738;2023-05-21T05:06:38;96143.88;;;12.52;100.00
48041;BME280;33815;48.386;11.738;2023-05-21T05:09:03;96143.03;;;12.60;100.00
48041;BME280;33815;48.386;11.738;2023-05-21T05:11:28;96139.53;;;12.67;100.00
48041;BME280;33815;48.386;11.738;2023-05-21T05:13:54;96130.34;;;12.72;100.00
48041;BME280;33815;48.386;11.738;2023-05-21T05:16:19;96137.41;;;12.86;100.00
48041;BME280;33815;48.386;11.738;2023-05-21T05:18:50;96142.16;;;12.91;100.00
48041;BME280;33815;48.386;11.738;2023-05-21T05:21:16;96141.44;;;12.97;100.00
48041;BME280;33815;48.386;11.738;2023-05-21T05:23:41;96137.94;;;13.05;100.00
48041;BME280;33815;48.386;11.738;2023-05-21T05:26:07;96145.38;;;13.16;100.00
48041;BME280;33815;48.386;11.738;2023-05-21T05:28:32;96141.09;;;13.38;100.00
48041;BME280;33815;48.386;11.738;2023-05-21T05:30:57;96142.53;;;13.41;100.00
48041;BME280;33815;48.386;11.738;2023-05-21T05:33:22;96130.22;;;13.49;100.00
48041;BME280;33815;48.386;11.738;2023-05-21T05:35:48;96119.91;;;13.63;100.00
48041;BME280;33815;48.386;11.738;2023-05-21T05:38:13;96138.69;;;13.66;100.00
48041;BME280;33815;48.386;11.738;2023-05-21T05:40:38;96146.72;;;13.80;100.00
48041;BME280;33815;48.386;11.738;2023-05-21T05:43:05;96129.84;;;13.82;100.00
48041;BME280;33815;48.386;11.738;2023-05-21T05:45:30;96131.56;;;13.90;100.00
48041;BME280;33815;48.386;11.738;2023-05-21T05:47:56;96123.84;;;14.18;100.00
48041;BME280;33815;48.386;11.738;2023-05-21T05:50:21;96118.13;;;14.15;100.00
48041;BME280;33815;48.386;11.738;2023-05-21T05:52:46;96138.44;;;14.28;100.00
48041;BME280;33815;48.386;11.738;2023-05-21T05:55:11;96133.94;;;14.58;100.00
48041;BME280;33815;48.386;11.738;2023-05-21T05:57:37;96139.91;;;14.67;100.00
48041;BME280;33815;48.386;11.738;2023-05-21T06:00:03;96136.88;;;14.70;100.00
48041;BME280;33815;48.386;11.738;2023-05-21T06:02:29;96129.16;;;14.83;99.59
48041;BME280;33815;48.386;11.738;2023-05-21T06:04:54;96138.53;;;14.93;99.78
48041;BME280;33815;48.386;11.738;2023-05-21T06:07:19;96134.75;;;15.02;99.49
48041;BME280;33815;48.386;11.738;2023-05-21T06:09:44;96132.00;;;15.10;97.72
48041;BME280;33815;48.386;11.738;2023-05-21T06:12:10;96144.63;;;15.21;97.67
48041;BME280;33815;48.386;11.738;2023-05-21T06:14:35;96140.94;;;15.72;93.18
48041;BME280;33815;48.386;11.738;2023-05-21T06:17:00;96143.91;;;15.63;94.28
48041;BME280;33815;48.386;11.738;2023-05-21T06:19:25;96126.72;;;15.67;93.70
48041;BME280;33815;48.386;11.738;2023-05-21T06:21:51;96145.31;;;15.93;89.72
48041;BME280;33815;48.386;11.738;2023-05-21T06:24:16;96145.13;;;16.02;93.58
48041;BME280;33815;48.386;11.738;2023-05-21T06:26:41;96141.19;;;16.19;91.42
48041;BME280;33815;48.386;11.738;2023-05-21T06:29:07;96127.16;;;16.05;96.28
48041;BME280;33815;48.386;11.738;2023-05-21T06:31:32;96111.28;;;16.34;90.91
48041;BME280;33815;48.386;11.738;2023-05-21T06:33:58;96136.44;;;16.56;90.09
48041;BME280;33815;48.386;11.738;2023-05-21T06:36:24;96126.97;;;16.75;87.88
48041;BME280;33815;48.386;11.738;2023-05-21T06:38:50;96122.31;;;16.77;88.35
48041;BME280;33815;48.386;11.738;2023-05-21T06:41:15;96133.91;;;16.97;89.42
48041;BME280;33815;48.386;11.738;2023-05-21T06:43:41;96122.97;;;16.93;88.50
48041;BME280;33815;48.386;11.738;2023-05-21T06:46:06;96124.38;;;17.22;80.34
48041;BME280;33815;48.386;11.738;2023-05-21T06:48:31;96124.19;;;17.17;82.77
48041;BME280;33815;48.386;11.738;2023-05-21T06:50:56;96123.59;;;17.28;82.91
48041;BME280;33815;48.386;11.738;2023-05-21T06:53:22;96134.88;;;17.62;79.85
48041;BME280;33815;48.386;11.738;2023-05-21T06:55:47;96127.34;;;17.73;77.93
48041;BME280;33815;48.386;11.738;2023-05-21T06:58:13;96126.19;;;17.55;80.43
48041;BME280;33815;48.386;11.738;2023-05-21T07:00:38;96139.94;;;17.71;78.50
48041;BME280;33815;48.386;11.738;2023-05-21T07:03:03;96139.88;;;18.11;78.07
48041;BME280;33815;48.386;11.738;2023-05-21T07:05:29;96136.25;;;17.98;79.28
48041;BME280;33815;48.386;11.738;2023-05-21T07:07:54;96140.22;;;18.21;75.48
48041;BME280;33815;48.386;11.738;2023-05-21T07:10:19;96130.16;;;17.98;79.18
48041;BME280;33815;48.386;11.738;2023-05-21T07:12:45;96147.06;;;18.36;75.22
48041;BME280;33815;48.386;11.738;2023-05-21T07:15:10;96143.63;;;18.35;74.18
48041;BME280;33815;48.386;11.738;2023-05-21T07:17:36;96135.00;;;18.53;73.29
48041;BME280;33815;48.386;11.738;2023-05-21T07:20:02;96137.88;;;18.45;74.98
48041;BME280;33815;48.386;11.738;2023-05-21T07:22:30;96145.34;;;18.55;75.01
48041;BME280;33815;48.386;11.738;2023-05-21T07:24:55;96147.00;;;18.49;73.60
48041;BME280;33815;48.386;11.738;2023-05-21T07:27:21;96134.63;;;18.43;74.30
48041;BME280;33815;48.386;11.738;2023-05-21T07:29:46;96143.75;;;18.47;74.92
48041;BME280;33815;48.386;11.738;2023-05-21T07:32:12;96139.00;;;18.62;73.96
48041;BME280;33815;48.386;11.738;2023-05-21T07:34:37;96138.72;;;18.39;73.18
48041;BME280;33815;48.386;11.738;2023-05-21T07:37:02;96139.47;;;18.53;72.03
48041;BME280;33815;48.386;11.738;2023-05-21T07:39:27;96146.75;;;18.57;73.44
48041;BME280;33815;48.386;11.738;2023-05-21T07:41:53;96145.25;;;18.68;72.13
48041;BME280;33815;48.386;11.738;2023-05-21T07:44:18;96143.69;;;18.60;72.47
48041;BME280;33815;48.386;11.738;2023-05-21T07:46:43;96127.16;;;18.33;71.28
48041;BME280;33815;48.386;11.738;2023-05-21T07:49:08;96137.69;;;18.40;75.12
48041;BME280;33815;48.386;11.738;2023-05-21T07:51:40;96142.56;;;18.43;76.44
48041;BME280;33815;48.386;11.738;2023-05-21T07:54:05;96142.78;;;18.35;77.07
48041;BME280;33815;48.386;11.738;2023-05-21T07:56:31;96139.31;;;18.47;77.09
48041;BME280;33815;48.386;11.738;2023-05-21T07:58:56;96132.63;;;18.45;76.82
48041;BME280;33815;48.386;11.738;2023-05-21T08:01:21;96141.31;;;18.84;76.39
48041;BME280;33815;48.386;11.738;2023-05-21T08:03:48;96123.94;;;18.70;76.84
48041;BME280;33815;48.386;11.738;2023-05-21T08:06:13;96137.44;;;18.87;78.75
48041;BME280;33815;48.386;11.738;2023-05-21T08:08:38;96133.00;;;18.87;76.78
48041;BME280;33815;48.386;11.738;2023-05-21T08:11:03;96133.19;;;18.86;79.49
48041;BME280;33815;48.386;11.738;2023-05-21T08:13:29;96127.91;;;18.92;76.19
48041;BME280;33815;48.386;11.738;2023-05-21T08:15:54;96126.22;;;18.98;80.27
48041;BME280;33815;48.386;11.738;2023-05-21T08:18:19;96128.22;;;19.28;74.05
48041;BME280;33815;48.386;11.738;2023-05-21T08:20:44;96132.78;;;19.39;74.68
48041;BME280;33815;48.386;11.738;2023-05-21T08:23:10;96124.38;;;19.49;74.13
48041;BME280;33815;48.386;11.738;2023-05-21T08:25:35;96138.09;;;19.58;75.15
48041;BME280;33815;48.386;11.738;2023-05-21T08:28:00;96136.75;;;19.74;74.96
48041;BME280;33815;48.386;11.738;2023-05-21T08:30:26;96138.94;;;19.77;72.26
48041;BME280;33815;48.386;11.738;2023-05-21T08:32:51;96132.78;;;20.01;75.46
48041;BME280;33815;48.386;11.738;2023-05-21T08:35:16;96134.28;;;20.16;70.85
48041;BME280;33815;48.386;11.738;2023-05-21T08:37:41;96139.84;;;20.26;71.16
48041;BME280;33815;48.386;11.738;2023-05-21T08:40:08;96140.03;;;20.43;69.19
48041;BME280;33815;48.386;11.738;2023-05-21T08:42:45;96132.13;;;20.74;66.26
48041;BME280;33815;48.386;11.738;2023-05-21T08:45:12;96135.97;;;20.59;70.67
48041;BME280;33815;48.386;11.738;2023-05-21T08:47:40;96119.75;;;20.86;66.78
48041;BME280;33815;48.386;11.738;2023-05-21T08:50:12;96120.91;;;20.90;65.98
48041;BME280;33815;48.386;11.738;2023-05-21T08:52:37;96130.34;;;20.98;65.94
48041;BME280;33815;48.386;11.738;2023-05-21T08:55:03;96125.66;;;21.12;64.87
48041;BME280;33815;48.386;11.738;2023-05-21T08:57:30;96125.66;;;21.12;63.73
48041;BME280;33815;48.386;11.738;2023-05-21T08:59:55;96120.59;;;21.46;61.18
48041;BME280;33815;48.386;11.738;2023-05-21T09:02:21;96123.16;;;21.41;63.73
48041;BME280;33815;48.386;11.738;2023-05-21T09:04:49;96128.69;;;21.86;62.60
48041;BME280;33815;48.386;11.738;2023-05-21T09:07:15;96113.19;;;22.07;59.67
48041;BME280;33815;48.386;11.738;2023-05-21T09:09:46;96127.28;;;21.84;62.35
48041;BME280;33815;48.386;11.738;2023-05-21T09:12:13;96131.88;;;22.12;62.65
48041;BME280;33815;48.386;11.738;2023-05-21T09:14:39;96123.16;;;22.29;60.00
48041;BME280;33815;48.386;11.738;2023-05-21T09:17:05;96130.56;;;22.15;60.31
48041;BME280;33815;48.386;11.738;2023-05-21T09:19:31;96125.81;;;22.40;62.18
48041;BME280;33815;48.386;11.738;2023-05-21T09:22:02;96121.78;;;22.26;58.42
48041;BME280;33815;48.386;11.738;2023-05-21T09:24:31;96127.44;;;22.30;60.24
48041;BME280;33815;48.386;11.738;2023-05-21T09:26:57;96106.94;;;22.54;54.82
48041;BME280;33815;48.386;11.738;2023-05-21T09:29:23;96105.84;;;22.38;51.68
48041;BME280;33815;48.386;11.738;2023-05-21T09:31:50;96122.84;;;22.54;52.38
48041;BME280;33815;48.386;11.738;2023-05-21T09:34:15;96117.72;;;22.47;54.51
48041;BME280;33815;48.386;11.738;2023-05-21T09:36:41;96116.78;;;22.70;50.90
48041;BME280;33815;48.386;11.738;2023-05-21T09:39:07;96124.25;;;22.56;52.69
48041;BME280;33815;48.386;11.738;2023-05-21T09:41:35;96114.63;;;22.67;54.79
48041;BME280;33815;48.386;11.738;2023-05-21T09:44:01;96121.31;;;22.70;54.16
48041;BME280;33815;48.386;11.738;2023-05-21T09:46:27;96119.31;;;22.77;53.64
48041;BME280;33815;48.386;11.738;2023-05-21T09:49:01;96128.59;;;23.08;54.69
48041;BME280;33815;48.386;11.738;2023-05-21T09:51:26;96129.00;;;23.17;55.87
48041;BME280;33815;48.386;11.738;2023-05-21T09:53:55;96111.03;;;23.58;52.01
48041;BME280;33815;48.386;11.738;2023-05-21T09:56:25;96112.84;;;23.92;51.55
48041;BME280;33815;48.386;11.738;2023-05-21T09:58:54;96106.03;;;23.84;53.56
48041;BME280;33815;48.386;11.738;2023-05-21T10:01:22;96116.00;;;24.11;52.32
48041;BME280;33815;48.386;11.738;2023-05-21T10:03:55;96104.13;;;24.46;47.24
48041;BME280;33815;48.386;11.738;2023-05-21T10:06:26;96108.59;;;24.40;49.15
48041;BME280;33815;48.386;11.738;2023-05-21T10:08:54;96108.34;;;24.64;47.45
48041;BME280;33815;48.386;11.738;2023-05-21T10:11:21;96099.13;;;24.77;50.20
48041;BME280;33815;48.386;11.738;2023-05-21T10:13:56;96112.47;;;25.09;48.51
48041;BME280;33815;48.386;11.738;2023-05-21T10:16:21;96110.88;;;25.08;45.63
48041;BME280;33815;48.386;11.738;2023-05-21T10:18:48;96106.06;;;25.38;48.23
48041;BME280;33815;48.386;11.738;2023-05-21T10:21:14;96091.53;;;25.61;46.84
48041;BME280;33815;48.386;11.738;2023-05-21T10:23:40;96089.50;;;25.83;46.48
48041;BME280;33815;48.386;11.738;2023-05-21T10:26:07;96089.91;;;26.08;45.15
48041;BME280;33815;48.386;11.738;2023-05-21T10:28:33;96088.69;;;26.52;44.79
48041;BME280;33815;48.386;11.738;2023-05-21T10:30:59;96079.34;;;26.59;43.55
48041;BME280;33815;48.386;11.738;2023-05-21T10:33:25;96077.72;;;26.38;43.06
48041;BME280;33815;48.386;11.738;2023-05-21T10:35:52;96076.72;;;25.86;41.83
48041;BME280;33815;48.386;11.738;2023-05-21T10:38:18;96067.91;;;25.90;42.42
48041;BME280;33815;48.386;11.738;2023-05-21T10:40:46;96075.59;;;26.50;44.37
48041;BME280;33815;48.386;11.738;2023-05-21T10:43:30;96068.44;;;26.76;44.64
48041;BME280;33815;48.386;11.738;2023-05-21T10:48:57;96069.81;;;26.89;42.44
48041;BME280;33815;48.386;11.738;2023-05-21T10:54:40;96063.88;;;27.18;41.66
48041;BME280;33815;48.386;11.738;2023-05-21T10:59:53;96065.72;;;27.53;39.93
48041;BME280;33815;48.386;11.738;2023-05-21T11:02:19;96039.50;;;27.61;36.14
48041;BME280;33815;48.386;11.738;2023-05-21T11:04:45;96063.53;;;27.76;40.75
48041;BME280;33815;48.386;11.738;2023-05-21T11:07:22;96050.66;;;27.83;37.32
48041;BME280;33815;48.386;11.738;2023-05-21T11:09:51;96057.03;;;27.93;40.77
48041;BME280;33815;48.386;11.738;2023-05-21T11:12:16;96057.34;;;28.46;36.09
48041;BME280;33815;48.386;11.738;2023-05-21T11:14:55;96060.25;;;27.95;37.54
48041;BME280;33815;48.386;11.738;2023-05-21T11:17:38;96046.66;;;27.81;35.80
48041;BME280;33815;48.386;11.738;2023-05-21T11:20:07;96047.16;;;27.83;38.27
48041;BME280;33815;48.386;11.738;2023-05-21T11:22:34;96047.16;;;27.83;37.82
48041;BME280;33815;48.386;11.738;2023-05-21T11:25:01;96062.66;;;28.01;37.03
48041;BME280;33815;48.386;11.738;2023-05-21T11:27:36;96060.22;;;28.05;39.38
48041;BME280;33815;48.386;11.738;2023-05-21T11:30:09;96060.31;;;27.74;37.43
48041;BME280;33815;48.386;11.738;2023-05-21T11:32:38;96056.06;;;27.58;38.28
48041;BME280;33815;48.386;11.738;2023-05-21T11:35:04;96053.16;;;27.33;38.06
48041;BME280;33815;48.386;11.738;2023-05-21T11:37:30;96065.75;;;27.12;39.55
48041;BME280;33815;48.386;11.738;2023-05-21T11:40:24;96056.41;;;27.35;38.81
48041;BME280;33815;48.386;11.738;2023-05-21T11:42:54;96057.22;;;27.00;38.08
48041;BME280;33815;48.386;11.738;2023-05-21T11:45:22;96065.72;;;26.61;39.94
48041;BME280;33815;48.386;11.738;2023-05-21T11:47:49;96056.38;;;26.58;39.47
48041;BME280;33815;48.386;11.738;2023-05-21T11:50:15;96054.00;;;26.72;39.68
48041;BME280;33815;48.386;11.738;2023-05-21T11:52:41;96070.31;;;27.01;42.31
48041;BME280;33815;48.386;11.738;2023-05-21T11:55:07;96056.94;;;27.12;38.33
48041;BME280;33815;48.386;11.738;2023-05-21T11:57:33;96047.84;;;27.18;40.64
48041;BME280;33815;48.386;11.738;2023-05-21T11:59:59;96049.31;;;27.81;40.69
48041;BME280;33815;48.386;11.738;2023-05-21T12:02:26;96062.94;;;27.90;42.27
48041;BME280;33815;48.386;11.738;2023-05-21T12:04:52;96047.03;;;28.14;43.25
48041;BME280;33815;48.386;11.738;2023-05-21T12:07:18;96048.13;;;28.63;37.75
48041;BME280;33815;48.386;11.738;2023-05-21T12:09:49;96035.53;;;28.63;36.22
48041;BME280;33815;48.386;11.738;2023-05-21T12:12:17;96026.44;;;28.54;33.38
48041;BME280;33815;48.386;11.738;2023-05-21T12:14:49;96034.06;;;28.81;34.90
48041;BME280;33815;48.386;11.738;2023-05-21T12:17:16;96031.13;;;28.78;35.14
48041;BME280;33815;48.386;11.738;2023-05-21T12:19:43;96038.00;;;28.49;35.15
48041;BME280;33815;48.386;11.738;2023-05-21T12:22:09;96039.50;;;28.71;37.37
48041;BME280;33815;48.386;11.738;2023-05-21T12:24:35;96034.84;;;29.16;35.47
48041;BME280;33815;48.386;11.738;2023-05-21T12:27:03;96033.25;;;29.10;35.35
48041;BME280;33815;48.386;11.738;2023-05-21T12:29:37;96020.94;;;29.09;33.23
48041;BME280;33815;48.386;11.738;2023-05-21T12:32:05;96043.59;;;28.63;39.17
48041;BME280;33815;48.386;11.738;2023-05-21T12:34:44;96026.66;;;29.32;34.12
48041;BME280;33815;48.386;11.738;2023-05-21T12:37:19;96024.47;;;29.34;35.32
48041;BME280;33815;48.386;11.738;2023-05-21T12:39:47;96015.84;;;29.61;33.98
48041;BME280;33815;48.386;11.738;2023-05-21T12:42:13;96027.19;;;29.82;34.74
48041;BME280;33815;48.386;11.738;2023-05-21T12:44:40;96022.38;;;29.31;31.20
48041;BME280;33815;48.386;11.738;2023-05-21T12:47:07;96025.41;;;29.97;34.66
48041;BME280;33815;48.386;11.738;2023-05-21T12:49:41;96027.44;;;30.24;35.01
48041;BME280;33815;48.386;11.738;2023-05-21T12:52:11;96003.19;;;29.91;30.68